Terminal Aerodrome Forecast
Issued by NWS St Louis, MO

Home | Current Version | Previous Version | Text Only | Print | Product List | Glossary On
Versions: 1 2 3 4 5 6 7 8 9 10 11 12 13 14 15 16 17 18 19 20
847
FTUS43 KLSX 270931 AAB
TAFCOU
TAF AMD
KCOU 270931Z 2710/2806 14012KT 6SM -RA OVC009
      TEMPO 2710/2711 SCT009 OVC070
     FM271200 15012KT P6SM BKN009
     FM271400 17012KT P6SM SCT025
     FM271900 20012KT P6SM VCTS BKN040CB
     FM272300 19010KT P6SM BKN050=

USA.gov is the U.S. government's official web portal to all federal, state and local government web resources and services.